Nearby METAR Reports

 

KHOT - Hot Springs, Arkansas, USA
Distance from station: W 8mi, 14km
Updated: 05/22/2022 9:27am
Mist, Overcast
Mist, Overcast
 Wind from NE
Wind: NE 8 mph , 13 km/h
Temperature: 61°F , 16°C
Dew Point: 57°F , 14°C
Humidity: 88%
Barometer: 30.24 inHg , 1024 hPa
Summary: Mist
Clouds: Overcast
Visibility: 5 miles , 8 km
Cloud details: Overcast 800 ft
2022/05/22 14:27 KHOT 221427Z AUTO 05007KT 5SM BR OVC008 16/14 A3024 RMK AO2 CIG 005V012 T01560139
KMWT - Mount Ida, Arkansas, USA
Distance from station: W 36mi, 58km
Updated: 05/21/2022 8:53pm
NOT Current
Rain, Mist, Overcast
Rain, Mist, Overcast
 Wind from varies
Wind: varies 5 mph , 7 km/h
Temperature: 64°F , 18°C
Dew Point: 61°F , 16°C
Humidity: 88%
Barometer: 29.98 inHg , 1015.2 hPa
Summary: Rain, Mist
Clouds: Overcast
Visibility: 6 miles , 10 km
Cloud details: Overcast 1100 ft
2022/05/22 01:53 KMWT 220153Z AUTO VRB04KT 6SM RA BR OVC011 18/16 A2998 RMK AO2 SLP144 P0005 T01780161 $
 
KLIT - Little Rock, Arkansas, USA
Distance from station: ENE 45mi, 73km
Updated: 05/22/2022 9:20am
Overcast
Overcast
 Wind from N
Wind: N 8 mph , 13 km/h
Temperature: 61°F , 16°C
Dew Point: 55°F , 13°C
Humidity: 83%
Barometer: 30.25 inHg , 1024.4 hPa
Clouds: Overcast
Visibility: 10 miles , 16 km
Cloud details: Overcast 900 ft
2022/05/22 14:20 KLIT 221420Z 01007KT 10SM OVC009 16/13 A3025 RMK AO2 T01610133 $
KLRF - Little Rock Afb, Arkansas, USA
Distance from station: NE 56mi, 89km
Updated: 05/22/2022 9:11am
Overcast
Overcast
 Wind from NNE
Wind: NNE 6 mph , 9 km/h
Temperature: 59°F , 15°C
Dew Point: 57°F , 14°C
Humidity: 94%
Barometer: 30.23 inHg , 1023.7 hPa
Clouds: Overcast
Visibility: 10 miles , 16 km
Cloud details: Overcast 600 ft
2022/05/22 14:11 KLRF 221411Z AUTO 02005KT 10SM OVC006 15/14 A3023 RMK AO2 SLP238